Saint Marks, Florida
Current Conditions -  °F | °C
As of 12:53 PM on Saturday 22 Nov 2014 (Local Time) from KTLH Reporting Station
Light Rain Light Rain  
Wind Chill: 61°   Ceiling: 4400
Heat Index: 61°   Visibility: 3mi
Dew Point: 57°   Wind: 5mph
Humidity: 87%   Direction: 50°NE
Pressure: 30.26"   Gusts: NA
Location:  30.16°N, 84.21°W
Report Text: KTLH 221753Z 05004KT 3SM -RA BR FEW033 BKN044 OVC055 16/14 A3026 RMK AO2 SLP245 P0007 60007 T01610139 10178 20128 58022 $
Loading
Personal Weather Stations






























Interactive Weather Map New forecast layout! Learn more

10-Day Weather Forecast

Advertisements
Track Severe Weather on mobile